createdAt,value
2022-07-25T00:00:43.576Z,98555.72
2022-07-25T00:03:51.199Z,98542.00
2022-07-25T00:06:59.716Z,98549.63
2022-07-25T00:10:06.018Z,98545.66
2022-07-25T00:13:11.432Z,98544.19
2022-07-25T00:16:17.791Z,98539.16
2022-07-25T00:19:23.281Z,98550.00
2022-07-25T00:22:32.464Z,98539.50
2022-07-25T00:25:37.871Z,98541.56
2022-07-25T00:28:44.457Z,98539.88
2022-07-25T00:31:50.128Z,98536.75
2022-07-25T00:34:56.683Z,98537.22
2022-07-25T00:38:05.808Z,98538.31
2022-07-25T00:41:12.209Z,98529.16
2022-07-25T00:44:26.795Z,98528.56
2022-07-25T00:47:32.994Z,98524.91
2022-07-25T00:50:39.412Z,98531.28
2022-07-25T00:53:48.919Z,98529.84
2022-07-25T00:56:54.839Z,98533.81
2022-07-25T01:00:02.970Z,98529.75
2022-07-25T01:03:08.856Z,98529.13
2022-07-25T01:06:15.353Z,98525.13
2022-07-25T01:09:24.353Z,98520.31
2022-07-25T01:12:30.613Z,98519.81
2022-07-25T01:15:36.405Z,98521.03
2022-07-25T01:18:45.720Z,98518.59
2022-07-25T01:21:56.122Z,98521.47
2022-07-25T01:25:03.071Z,98513.91
2022-07-25T01:28:09.110Z,98511.63
2022-07-25T01:31:15.439Z,98518.06
2022-07-25T01:34:22.787Z,98514.72
2022-07-25T01:37:31.103Z,98507.41
2022-07-25T01:40:37.450Z,98504.84
2022-07-25T01:43:43.752Z,98500.53
2022-07-25T01:46:50.229Z,98505.09
2022-07-25T01:49:55.976Z,98504.59
2022-07-25T01:53:06.168Z,98495.94
2022-07-25T01:56:11.916Z,98493.28
2022-07-25T01:59:19.014Z,98493.28
2022-07-25T02:02:24.456Z,98498.59
2022-07-25T02:05:30.958Z,98486.78
2022-07-25T02:08:39.472Z,98496.16
2022-07-25T02:15:39.203Z,98488.13
2022-07-25T02:18:46.143Z,98500.63
2022-07-25T02:21:53.305Z,98493.88
2022-07-25T02:25:03.617Z,98499.38
2022-07-25T02:28:10.586Z,98492.66
2022-07-25T02:31:17.138Z,98494.56
2022-07-25T02:34:22.632Z,98498.16
2022-07-25T02:37:28.805Z,98493.00
2022-07-25T02:40:37.131Z,98500.06
2022-07-25T02:43:43.731Z,98501.22
2022-07-25T02:46:49.407Z,98507.50
2022-07-25T02:49:55.912Z,98499.78
2022-07-25T02:53:03.077Z,98511.56
2022-07-25T02:56:12.402Z,98503.94
2022-07-25T02:59:19.560Z,98500.69
2022-07-25T03:02:25.850Z,98508.63
2022-07-25T03:05:31.437Z,98500.56
2022-07-25T03:08:37.926Z,98512.84
2022-07-25T03:11:46.374Z,98505.00
2022-07-25T03:14:53.619Z,98509.56
2022-07-25T03:17:59.154Z,98508.84
2022-07-25T03:21:05.487Z,98501.00
2022-07-25T03:24:11.308Z,98500.19
2022-07-25T03:27:20.832Z,98500.19
2022-07-25T03:30:26.323Z,98488.66
2022-07-25T03:33:32.863Z,98484.09
2022-07-25T03:36:38.560Z,98478.81
2022-07-25T03:39:45.098Z,98489.16
2022-07-25T03:42:53.672Z,98482.59
2022-07-25T03:45:59.947Z,98481.41
2022-07-25T03:49:07.274Z,98472.16
2022-07-25T03:52:13.540Z,98481.34
2022-07-25T03:55:19.102Z,98475.72
2022-07-25T03:58:28.447Z,98468.28
2022-07-25T04:01:33.966Z,98472.28
2022-07-25T04:04:40.573Z,98478.69
2022-07-25T04:07:46.415Z,98477.16
2022-07-25T04:10:52.937Z,98482.72
2022-07-25T04:14:01.388Z,98478.53
2022-07-25T04:17:07.857Z,98477.00
2022-07-25T04:20:15.832Z,98478.22
2022-07-25T04:23:22.582Z,98481.44
2022-07-25T04:26:28.129Z,98482.91
2022-07-25T04:29:37.773Z,98489.41
2022-07-25T04:32:43.258Z,98484.50
2022-07-25T04:35:51.088Z,98487.13
2022-07-25T04:38:56.783Z,98489.06
2022-07-25T04:42:03.345Z,98485.69
2022-07-25T04:45:13.000Z,98490.06
2022-07-25T04:48:19.638Z,98494.63
2022-07-25T04:51:25.175Z,98490.03
2022-07-25T04:54:32.021Z,98489.06
2022-07-25T04:57:37.571Z,98480.81
2022-07-25T05:00:47.646Z,98480.28
2022-07-25T05:03:53.364Z,98477.09
2022-07-25T05:06:59.679Z,98469.59
2022-07-25T05:10:05.348Z,98470.81
2022-07-25T05:13:11.767Z,98466.75
2022-07-25T05:16:21.554Z,98465.88
2022-07-25T05:19:27.934Z,98462.63
2022-07-25T05:22:33.699Z,98460.78
2022-07-25T05:25:40.316Z,98461.53
2022-07-25T05:28:45.885Z,98459.59
2022-07-25T05:31:55.252Z,98466.63
2022-07-25T05:35:00.590Z,98455.72
2022-07-25T05:38:08.912Z,98464.88
2022-07-25T05:41:17.407Z,98457.06
2022-07-25T05:44:23.677Z,98453.56
2022-07-25T05:47:31.953Z,98444.31
2022-07-25T05:50:39.946Z,98443.78
2022-07-25T05:53:45.332Z,98431.31
2022-07-25T05:56:51.533Z,98438.13
2022-07-25T05:59:58.212Z,98438.97
2022-07-25T06:03:07.470Z,98435.31
2022-07-25T06:06:13.355Z,98432.75
2022-07-25T06:09:20.361Z,98432.28
2022-07-25T06:12:25.855Z,98432.97
2022-07-25T06:15:32.589Z,98433.41
2022-07-25T06:18:41.976Z,98430.59
2022-07-25T06:21:48.133Z,98428.84
2022-07-25T06:24:53.590Z,98419.78
2022-07-25T06:27:59.807Z,98417.59
2022-07-25T06:31:07.314Z,98402.38
2022-07-25T06:34:16.822Z,98405.19
2022-07-25T06:37:22.273Z,98407.34
2022-07-25T06:40:28.718Z,98406.41
2022-07-25T06:43:34.196Z,98401.69
2022-07-25T06:46:40.644Z,98402.97
2022-07-25T06:49:48.874Z,98402.56
2022-07-25T06:52:55.540Z,98403.78
2022-07-25T06:56:00.990Z,98394.81
2022-07-25T06:59:08.339Z,98398.25
2022-07-25T07:02:13.808Z,98402.25
2022-07-25T07:05:22.939Z,98399.63
2022-07-25T07:08:28.356Z,98404.03
2022-07-25T07:11:34.663Z,98399.06
2022-07-25T07:14:40.423Z,98396.06
2022-07-25T07:17:46.711Z,98393.06
2022-07-25T07:20:55.149Z,98388.13
2022-07-25T07:24:03.299Z,98393.16
2022-07-25T07:27:27.509Z,98389.31
2022-07-25T07:31:05.529Z,98383.47
2022-07-25T07:34:00.323Z,98382.50
2022-07-25T07:37:10.708Z,98377.81
2022-07-25T07:40:18.351Z,98377.66
2022-07-25T07:43:29.627Z,98379.19
2022-07-25T07:46:38.503Z,98384.03
2022-07-25T07:49:49.793Z,98379.88
2022-07-25T07:52:59.332Z,98374.19
2022-07-25T07:56:04.761Z,98373.69
2022-07-25T07:59:10.676Z,98370.81
2022-07-25T08:02:17.814Z,98375.84
2022-07-25T08:05:25.341Z,98369.16
2022-07-25T08:08:34.955Z,98367.81
2022-07-25T08:11:40.471Z,98363.44
2022-07-25T08:35:21.310Z,98367.75
2022-07-25T08:43:09.308Z,98366.22
2022-07-25T08:46:16.351Z,98368.06
2022-07-25T08:49:22.982Z,98352.31
2022-07-25T08:52:31.947Z,98353.63
2022-07-25T08:55:38.693Z,98356.69
2022-07-25T08:58:44.895Z,98354.13
2022-07-25T09:01:51.275Z,98348.84
2022-07-25T09:04:56.763Z,98334.19
2022-07-25T09:08:14.453Z,98332.59
2022-07-25T09:11:30.249Z,98332.19
2022-07-25T09:14:45.377Z,98338.25
2022-07-25T09:17:53.369Z,98330.75
2022-07-25T09:21:03.053Z,98332.91
2022-07-25T09:24:17.504Z,98335.94
2022-07-25T09:27:23.731Z,98334.63
2022-07-25T09:30:29.206Z,98322.72
2022-07-25T09:33:35.664Z,98327.59
2022-07-25T09:36:43.625Z,98314.19
2022-07-25T09:39:54.717Z,98322.53
2022-07-25T09:43:00.072Z,98318.28
2022-07-25T09:46:08.617Z,98317.38
2022-07-25T09:49:14.814Z,98309.69
2022-07-25T09:52:21.548Z,98304.69
2022-07-25T09:55:30.131Z,98306.94
2022-07-25T09:58:36.388Z,98296.56
2022-07-25T10:01:51.741Z,98298.31
2022-07-25T10:05:12.143Z,98302.19
2022-07-25T10:08:18.206Z,98300.34
2022-07-25T10:11:30.435Z,98291.41
2022-07-25T10:14:36.297Z,98292.16
2022-07-25T10:17:44.838Z,98291.19
2022-07-25T10:20:51.927Z,98281.22
2022-07-25T10:24:03.160Z,98278.53
2022-07-25T10:27:16.104Z,98280.47
2022-07-25T10:30:28.930Z,98275.47
2022-07-25T10:33:44.511Z,98280.41
2022-07-25T10:36:52.022Z,98278.31
2022-07-25T10:39:58.107Z,98274.91
2022-07-25T10:43:16.131Z,98277.22
2022-07-25T10:46:23.711Z,98271.03
2022-07-25T10:49:32.448Z,98264.09
2022-07-25T10:52:46.300Z,98260.66
2022-07-25T10:56:06.009Z,98247.72
2022-07-25T10:59:15.197Z,98254.88
2022-07-25T11:02:21.790Z,98249.88
2022-07-25T11:05:27.290Z,98247.19
2022-07-25T11:08:36.688Z,98252.19
2022-07-25T11:11:48.433Z,98241.66
2022-07-25T11:15:03.272Z,98239.03
2022-07-25T11:18:09.434Z,98238.47
2022-07-25T11:21:15.968Z,98233.09
2022-07-25T11:24:22.058Z,98226.53
2022-07-25T11:27:29.801Z,98214.41
2022-07-25T11:30:38.109Z,98212.66
2022-07-25T11:33:46.175Z,98214.31
2022-07-25T11:36:51.787Z,98205.22
2022-07-25T11:39:58.551Z,98195.53
2022-07-25T11:43:06.361Z,98197.56
2022-07-25T11:46:15.561Z,98198.56
2022-07-25T11:49:21.414Z,98188.47
2022-07-25T11:52:32.998Z,98174.88
2022-07-25T11:55:41.289Z,98177.16
2022-07-25T11:58:53.280Z,98175.56
2022-07-25T12:02:01.466Z,98173.56
2022-07-25T12:05:10.898Z,98159.44
2022-07-25T12:08:18.054Z,98156.03
2022-07-25T12:11:26.204Z,98156.66
2022-07-25T12:14:35.399Z,98150.53
2022-07-25T12:17:44.667Z,98152.47
2022-07-25T12:20:50.340Z,98131.63
2022-07-25T12:23:56.728Z,98131.28
2022-07-25T12:27:03.094Z,98139.59
2022-07-25T12:30:11.269Z,98127.41
2022-07-25T12:33:19.704Z,98123.50
2022-07-25T12:36:26.348Z,98120.56
2022-07-25T12:39:31.784Z,98119.34
2022-07-25T12:42:38.156Z,98112.84
2022-07-25T12:45:43.791Z,98115.59
2022-07-25T12:48:53.210Z,98114.63
2022-07-25T12:51:58.710Z,98110.53
2022-07-25T12:55:07.493Z,98101.25
2022-07-25T12:58:15.368Z,98089.91
2022-07-25T13:01:21.923Z,98092.44
2022-07-25T13:04:30.133Z,98087.13
2022-07-25T13:07:36.575Z,98088.03
2022-07-25T13:10:42.210Z,98093.66
2022-07-25T13:13:48.587Z,98084.38
2022-07-25T13:16:54.937Z,98076.06
2022-07-25T13:20:04.589Z,98062.00
2022-07-25T13:23:10.200Z,98062.41
2022-07-25T13:26:16.774Z,98065.38
2022-07-25T13:29:22.664Z,98058.13
2022-07-25T13:32:31.982Z,98059.63
2022-07-25T13:35:40.237Z,98056.72
2022-07-25T13:38:48.004Z,98049.28
2022-07-25T13:41:53.388Z,98048.50
2022-07-25T13:44:59.867Z,98053.09
2022-07-25T13:48:28.845Z,98027.81
2022-07-25T13:51:39.217Z,98031.97
2022-07-25T13:54:44.843Z,98026.63
2022-07-25T13:57:51.404Z,98032.00
2022-07-25T14:00:58.257Z,98022.53
2022-07-25T14:04:06.391Z,98017.34
2022-07-25T14:07:14.874Z,98007.06
2022-07-25T14:10:22.182Z,97999.16
2022-07-25T14:13:27.999Z,98002.13
2022-07-25T14:18:43.652Z,98001.09
2022-07-25T14:21:50.995Z,97996.97
2022-07-25T14:24:56.357Z,97989.97
2022-07-25T14:28:03.305Z,97984.19
2022-07-25T14:31:08.787Z,97980.25
2022-07-25T14:34:18.542Z,97977.53
2022-07-25T14:37:24.228Z,97977.94
2022-07-25T14:40:30.635Z,97971.34
2022-07-25T14:43:35.938Z,97965.94
2022-07-25T14:46:42.187Z,97972.56
2022-07-25T14:49:50.558Z,97962.84
2022-07-25T14:52:56.817Z,97967.38
2022-07-25T14:56:03.053Z,97955.56
2022-07-25T14:59:10.271Z,97948.06
2022-07-25T15:02:15.845Z,97940.19
2022-07-25T15:05:25.024Z,97944.38
2022-07-25T15:08:30.367Z,97934.38
2022-07-25T15:11:36.597Z,97933.53
2022-07-25T15:14:43.572Z,97936.88
2022-07-25T15:17:49.987Z,97928.91
2022-07-25T15:20:58.395Z,97925.84
2022-07-25T15:24:06.269Z,97919.06
2022-07-25T15:27:12.561Z,97911.78
2022-07-25T15:30:18.979Z,97902.91
2022-07-25T15:33:25.717Z,97892.91
2022-07-25T15:36:34.871Z,97896.69
2022-07-25T15:39:40.522Z,97890.78
2022-07-25T15:42:47.276Z,97890.47
2022-07-25T15:45:53.193Z,97905.78
2022-07-25T15:49:00.514Z,97881.31
2022-07-25T15:52:10.349Z,97872.81
2022-07-25T15:55:16.650Z,97875.28
2022-07-25T15:58:22.096Z,97866.72
2022-07-25T16:01:28.670Z,97883.31
2022-07-25T16:04:34.090Z,97867.66
2022-07-25T16:07:43.274Z,97859.03
2022-07-25T16:10:48.724Z,97875.00
2022-07-25T16:13:55.571Z,97865.16
2022-07-25T16:17:03.325Z,97863.78
2022-07-25T16:20:11.809Z,97852.56
2022-07-25T16:23:20.132Z,97853.09
2022-07-25T16:26:26.653Z,97840.78
2022-07-25T16:29:32.354Z,97843.78
2022-07-25T16:32:38.745Z,97848.69
2022-07-25T16:35:44.715Z,97852.50
2022-07-25T16:38:54.533Z,97848.06
2022-07-25T16:42:00.303Z,97833.44
2022-07-25T16:45:08.926Z,97837.47
2022-07-25T16:48:14.524Z,97833.44
2022-07-25T16:51:20.912Z,97834.50
2022-07-25T16:54:29.170Z,97840.06
2022-07-25T16:57:35.809Z,97847.19
2022-07-25T17:00:42.221Z,97833.72
2022-07-25T17:03:48.631Z,97849.03
2022-07-25T17:06:54.319Z,97824.09
2022-07-25T17:10:03.622Z,97824.38
2022-07-25T17:13:09.746Z,97832.97
2022-07-25T17:16:16.475Z,97824.28
2022-07-25T17:19:22.271Z,97830.94
2022-07-25T17:22:28.581Z,97823.06
2022-07-25T17:25:37.192Z,97811.72
2022-07-25T17:28:43.579Z,97823.50
2022-07-25T17:31:49.238Z,97806.88
2022-07-25T17:34:56.507Z,97808.91
2022-07-25T17:38:03.095Z,97809.72
2022-07-25T17:41:12.623Z,97803.50
2022-07-25T17:44:18.545Z,97804.22
2022-07-25T17:47:25.649Z,97792.94
2022-07-25T17:50:31.379Z,97807.06
2022-07-25T17:53:37.884Z,97810.69
2022-07-25T17:56:46.564Z,97797.25
2022-07-25T17:59:52.836Z,97793.28
2022-07-25T18:02:58.686Z,97808.31
2022-07-25T18:06:06.383Z,97783.97
2022-07-25T18:09:12.027Z,97787.63
2022-07-25T18:12:23.773Z,97779.59
2022-07-25T18:15:31.765Z,97798.31
2022-07-25T18:18:38.541Z,97780.13
2022-07-25T18:21:45.250Z,97781.63
2022-07-25T18:24:51.576Z,97778.53
2022-07-25T18:28:00.453Z,97768.19
2022-07-25T18:31:08.931Z,97768.81
2022-07-25T18:34:14.508Z,97761.50
2022-07-25T18:37:20.881Z,97750.53
2022-07-25T18:40:26.403Z,97754.22
2022-07-25T18:43:35.503Z,97763.09
2022-07-25T18:46:41.161Z,97759.53
2022-07-25T18:49:47.838Z,97759.06
2022-07-25T18:52:53.273Z,97755.91
2022-07-25T18:55:59.931Z,97761.84
2022-07-25T18:59:10.271Z,97757.63
2022-07-25T19:02:18.310Z,97737.88
2022-07-25T19:05:24.117Z,97760.97
2022-07-25T19:08:30.636Z,97756.38
2022-07-25T19:11:41.808Z,97748.81
2022-07-25T19:14:51.374Z,97752.88
2022-07-25T19:17:56.934Z,97753.00
2022-07-25T19:21:03.529Z,97746.50
2022-07-25T19:24:10.147Z,97737.28
2022-07-25T19:27:16.882Z,97741.50
2022-07-25T19:30:25.054Z,97742.47
2022-07-25T19:33:34.825Z,97739.25
2022-07-25T19:36:43.950Z,97750.78
2022-07-25T19:39:51.499Z,97750.72
2022-07-25T19:42:57.763Z,97741.91
2022-07-25T19:46:07.175Z,97732.97
2022-07-25T19:49:13.587Z,97732.41
2022-07-25T19:52:19.917Z,97722.84
2022-07-25T19:55:25.608Z,97740.97
2022-07-25T19:58:35.417Z,97744.38
2022-07-25T20:01:47.472Z,97732.84
2022-07-25T20:04:54.255Z,97730.25
2022-07-25T20:08:00.008Z,97726.69
2022-07-25T20:11:08.567Z,97739.78
2022-07-25T20:14:14.077Z,97732.84
2022-07-25T20:17:23.652Z,97746.88
2022-07-25T20:20:29.598Z,97738.03
2022-07-25T20:23:36.641Z,97730.06
2022-07-25T20:26:42.651Z,97735.75
2022-07-25T20:29:49.660Z,97743.50
2022-07-25T20:32:58.238Z,97735.47
2022-07-25T20:36:06.506Z,97726.69
2022-07-25T20:39:13.216Z,97730.94
2022-07-25T20:42:19.765Z,97747.63
2022-07-25T20:45:26.004Z,97740.88
2022-07-25T20:53:20.182Z,97743.97
2022-07-25T20:56:26.482Z,97739.31
2022-07-25T20:59:32.375Z,97737.03
2022-07-25T21:02:38.726Z,97737.72
2022-07-25T21:05:44.435Z,97744.41
2022-07-25T21:08:53.750Z,97745.13
2022-07-25T21:11:59.152Z,97743.34
2022-07-25T21:15:06.404Z,97737.88
2022-07-25T21:18:11.813Z,97749.28
2022-07-25T21:21:18.035Z,97740.13
2022-07-25T21:24:26.232Z,97743.31
2022-07-25T21:27:32.418Z,97743.00
2022-07-25T21:30:41.293Z,97755.06
2022-07-25T21:33:48.193Z,97755.75
2022-07-25T21:36:53.576Z,97749.97
2022-07-25T21:40:03.090Z,97749.81
2022-07-25T21:43:08.707Z,97746.81
2022-07-25T21:46:19.566Z,97737.63
2022-07-25T21:49:42.049Z,97740.00
2022-07-25T21:52:49.277Z,97731.88
2022-07-25T21:55:57.658Z,97734.22
2022-07-25T21:59:07.154Z,97719.06
2022-07-25T22:02:12.742Z,97707.91
2022-07-25T22:05:20.526Z,97705.91
2022-07-25T22:08:26.105Z,97706.63
2022-07-25T22:11:42.589Z,97707.97
2022-07-25T22:14:51.987Z,97708.47
2022-07-25T22:17:58.547Z,97706.34
2022-07-25T22:21:04.270Z,97700.69
2022-07-25T22:24:10.983Z,97697.31
2022-07-25T22:27:19.230Z,97700.47
2022-07-25T22:30:25.438Z,97696.66
2022-07-25T22:33:34.602Z,97696.53
2022-07-25T22:36:40.829Z,97693.03
2022-07-25T22:39:46.437Z,97688.22
2022-07-25T22:42:55.408Z,97680.03
2022-07-25T22:46:00.966Z,97664.56
2022-07-25T22:49:08.544Z,97665.75
2022-07-25T22:52:14.087Z,97656.44
2022-07-25T22:55:20.633Z,97652.09
2022-07-25T22:58:29.321Z,97657.75
2022-07-25T23:01:35.894Z,97647.59
2022-07-25T23:04:41.346Z,97641.75
2022-07-25T23:07:47.845Z,97642.09
2022-07-25T23:10:53.488Z,97636.13
2022-07-25T23:14:03.355Z,97637.94
2022-07-25T23:17:20.954Z,97633.44
2022-07-25T23:20:27.104Z,97637.13
2022-07-25T23:23:32.509Z,97642.78
2022-07-25T23:26:38.960Z,97649.09
2022-07-25T23:29:47.907Z,97650.13
2022-07-25T23:32:54.137Z,97649.09
2022-07-25T23:35:59.949Z,97642.28
2022-07-25T23:39:08.363Z,97640.63
2022-07-25T23:42:20.263Z,97633.44
2022-07-25T23:45:29.405Z,97632.28
2022-07-25T23:48:34.827Z,97625.13
2022-07-25T23:51:41.355Z,97625.13
2022-07-25T23:54:47.001Z,97628.81
2022-07-25T23:57:53.571Z,97626.81
